createdAt,value
2023-01-25T00:01:01.895Z,102490.50
2023-01-25T00:03:29.896Z,102491.34
2023-01-25T00:05:57.793Z,102496.09
2023-01-25T00:08:25.689Z,102490.75
2023-01-25T00:10:53.572Z,102486.31
2023-01-25T00:13:21.516Z,102481.72
2023-01-25T00:15:49.355Z,102479.84
2023-01-25T00:18:17.298Z,102480.09
2023-01-25T00:20:45.181Z,102481.97
2023-01-25T00:23:13.080Z,102481.22
2023-01-25T00:25:41.112Z,102487.66
2023-01-25T00:28:09.050Z,102476.91
2023-01-25T00:30:54.251Z,102474.31
2023-01-25T00:33:22.068Z,102484.22
2023-01-25T00:35:50.037Z,102476.28
2023-01-25T00:38:17.901Z,102468.13
2023-01-25T00:40:45.781Z,102474.59
2023-01-25T00:43:14.760Z,102473.00
2023-01-25T00:45:42.551Z,102478.16
2023-01-25T00:48:10.483Z,102473.56
2023-01-25T00:50:38.253Z,102478.31
2023-01-25T00:53:06.264Z,102472.25
2023-01-25T00:55:34.104Z,102472.25
2023-01-25T00:58:02.115Z,102474.84
2023-01-25T01:00:29.937Z,102481.03
2023-01-25T01:02:57.827Z,102480.56
2023-01-25T01:05:25.667Z,102478.13
2023-01-25T01:07:53.485Z,102479.09
2023-01-25T01:10:21.317Z,102475.63
2023-01-25T01:12:49.096Z,102466.50
2023-01-25T01:15:34.580Z,102477.03
2023-01-25T01:18:20.150Z,102476.72
2023-01-25T01:20:48.173Z,102467.94
2023-01-25T01:23:16.028Z,102460.78
2023-01-25T01:25:43.922Z,102467.06
2023-01-25T01:28:11.792Z,102461.78
2023-01-25T01:30:39.649Z,102457.47
2023-01-25T01:33:07.629Z,102462.91
2023-01-25T01:35:35.469Z,102458.44
2023-01-25T01:38:03.459Z,102454.84
2023-01-25T01:40:31.552Z,102442.34
2023-01-25T01:42:59.701Z,102445.09
2023-01-25T01:45:27.627Z,102436.06
2023-01-25T01:47:55.452Z,102427.03
2023-01-25T01:50:23.319Z,102425.28
2023-01-25T01:52:51.403Z,102412.53
2023-01-25T01:55:19.287Z,102410.69
2023-01-25T01:57:47.151Z,102406.94
2023-01-25T02:00:14.995Z,102402.50
2023-01-25T02:02:43.143Z,102393.44
2023-01-25T02:05:11.050Z,102395.31
2023-01-25T02:07:38.929Z,102398.91
2023-01-25T02:10:06.768Z,102398.91
2023-01-25T02:12:34.720Z,102390.59
2023-01-25T02:15:02.631Z,102389.59
2023-01-25T02:17:30.537Z,102382.91
2023-01-25T02:19:58.391Z,102387.59
2023-01-25T02:22:26.481Z,102380.56
2023-01-25T02:24:54.305Z,102372.41
2023-01-25T02:27:22.141Z,102366.09
2023-01-25T02:29:49.981Z,102370.81
2023-01-25T02:32:17.970Z,102374.53
2023-01-25T02:34:45.791Z,102372.69
2023-01-25T02:37:13.776Z,102370.81
2023-01-25T02:39:41.860Z,102368.94
2023-01-25T02:42:09.749Z,102369.94
2023-01-25T02:44:37.661Z,102366.38
2023-01-25T02:47:05.477Z,102367.97
2023-01-25T02:49:33.359Z,102365.34
2023-01-25T02:52:01.346Z,102363.38
2023-01-25T02:54:29.137Z,102374.81
2023-01-25T02:56:57.021Z,102368.16
2023-01-25T02:59:24.900Z,102363.13
2023-01-25T03:01:52.835Z,102359.66
2023-01-25T03:04:20.821Z,102358.06
2023-01-25T03:06:48.805Z,102353.91
2023-01-25T03:09:16.661Z,102352.88
2023-01-25T03:11:44.674Z,102352.75
2023-01-25T03:14:12.537Z,102351.91
2023-01-25T03:16:40.365Z,102350.91
2023-01-25T03:19:08.194Z,102348.28
2023-01-25T03:21:36.090Z,102339.16
2023-01-25T03:24:04.039Z,102339.16
2023-01-25T03:26:51.906Z,102336.28
2023-01-25T03:29:19.876Z,102334.84
2023-01-25T03:31:47.822Z,102332.84
2023-01-25T03:34:15.869Z,102325.53
2023-01-25T03:36:43.768Z,102334.28
2023-01-25T03:39:11.590Z,102326.97
2023-01-25T03:41:39.476Z,102318.81
2023-01-25T03:44:07.338Z,102331.44
2023-01-25T03:46:35.217Z,102334.00
2023-01-25T03:49:03.067Z,102329.56
2023-01-25T03:51:30.917Z,102321.69
2023-01-25T03:53:58.796Z,102324.88
2023-01-25T03:56:26.784Z,102325.84
2023-01-25T03:58:54.616Z,102312.97
2023-01-25T04:01:22.503Z,102325.72
2023-01-25T04:03:50.420Z,102326.31
2023-01-25T04:06:18.269Z,102320.84
2023-01-25T04:08:46.074Z,102321.13
2023-01-25T04:11:13.944Z,102323.13
2023-01-25T04:13:41.842Z,102326.59
2023-01-25T04:16:09.942Z,102314.84
2023-01-25T04:18:37.876Z,102317.41
2023-01-25T04:21:05.732Z,102314.69
2023-01-25T04:23:33.612Z,102311.09
2023-01-25T04:26:01.590Z,102305.94
2023-01-25T04:28:29.489Z,102298.50
2023-01-25T04:30:57.656Z,102298.63
2023-01-25T04:33:25.576Z,102288.47
2023-01-25T04:35:53.447Z,102287.72
2023-01-25T04:38:21.423Z,102292.44
2023-01-25T04:40:49.296Z,102290.72
2023-01-25T04:43:17.288Z,102295.16
2023-01-25T04:45:45.257Z,102296.03
2023-01-25T04:48:13.454Z,102299.91
2023-01-25T04:50:41.395Z,102285.56
2023-01-25T04:53:09.388Z,102283.69
2023-01-25T04:55:37.492Z,102284.69
2023-01-25T04:58:05.292Z,102278.41
2023-01-25T05:00:33.361Z,102281.81
2023-01-25T05:03:01.253Z,102284.69
2023-01-25T05:05:29.288Z,102285.56
2023-01-25T05:07:57.390Z,102278.41
2023-01-25T05:10:25.268Z,102284.97
2023-01-25T05:12:53.805Z,102279.66
2023-01-25T05:15:23.517Z,102279.91
2023-01-25T05:17:51.591Z,102268.28
2023-01-25T05:20:19.704Z,102272.03
2023-01-25T05:22:48.015Z,102278.59
2023-01-25T05:25:29.932Z,102278.72
2023-01-25T05:27:58.002Z,102280.81
2023-01-25T05:30:25.875Z,102269.22
2023-01-25T05:32:53.903Z,102273.78
2023-01-25T05:35:21.776Z,102275.50
2023-01-25T05:37:49.622Z,102275.50
2023-01-25T05:40:17.581Z,102263.59
2023-01-25T05:42:45.455Z,102261.91
2023-01-25T05:45:13.337Z,102267.34
2023-01-25T05:47:41.249Z,102262.47
2023-01-25T05:50:09.641Z,102260.88
2023-01-25T05:52:37.699Z,102267.34
2023-01-25T05:55:05.591Z,102266.34
2023-01-25T05:57:33.459Z,102260.03
2023-01-25T06:00:02.229Z,102263.59
2023-01-25T06:02:30.243Z,102262.63
2023-01-25T06:04:58.236Z,102261.91
2023-01-25T06:07:26.269Z,102267.22
2023-01-25T06:09:54.371Z,102268.81
2023-01-25T06:12:22.454Z,102263.13
2023-01-25T06:14:50.539Z,102256.66
2023-01-25T06:17:18.493Z,102255.94
2023-01-25T06:19:46.490Z,102257.81
2023-01-25T06:22:14.361Z,102263.97
2023-01-25T06:24:42.262Z,102263.97
2023-01-25T06:27:11.034Z,102258.53
2023-01-25T06:29:38.940Z,102255.19
2023-01-25T06:32:06.832Z,102254.09
2023-01-25T06:34:34.857Z,102252.25
2023-01-25T06:37:02.882Z,102253.94
2023-01-25T06:39:30.977Z,102252.34
2023-01-25T06:41:59.016Z,102247.78
2023-01-25T06:44:27.003Z,102240.34
2023-01-25T06:46:55.548Z,102246.78
2023-01-25T06:49:23.532Z,102255.06
2023-01-25T06:51:51.531Z,102247.94
2023-01-25T06:54:19.407Z,102240.69
2023-01-25T06:56:47.327Z,102244.31
2023-01-25T06:59:16.157Z,102243.34
2023-01-25T07:01:44.088Z,102244.44
2023-01-25T07:04:12.141Z,102236.38
2023-01-25T07:06:40.133Z,102233.94
2023-01-25T07:09:08.022Z,102231.50
2023-01-25T07:11:36.048Z,102234.22
2023-01-25T07:14:03.924Z,102230.75
2023-01-25T07:16:38.673Z,102223.59
2023-01-25T07:19:06.629Z,102230.19
2023-01-25T07:21:34.542Z,102217.69
2023-01-25T07:24:02.952Z,102218.56
2023-01-25T07:26:30.869Z,102216.69
2023-01-25T07:28:58.786Z,102221.16
2023-01-25T07:31:26.864Z,102220.88
2023-01-25T07:33:54.892Z,102211.00
2023-01-25T07:36:22.797Z,102199.38
2023-01-25T07:38:50.772Z,102208.41
2023-01-25T07:41:18.578Z,102203.81
2023-01-25T07:43:46.551Z,102209.25
2023-01-25T07:46:15.656Z,102206.41
2023-01-25T07:48:43.563Z,102194.53
2023-01-25T07:51:22.878Z,102196.28
2023-01-25T07:53:51.498Z,102194.25
2023-01-25T07:56:19.537Z,102191.41
2023-01-25T07:58:47.478Z,102179.38
2023-01-25T08:01:15.354Z,102179.22
2023-01-25T08:03:44.037Z,102178.25
2023-01-25T08:06:12.329Z,102179.00
2023-01-25T08:08:40.343Z,102168.84
2023-01-25T08:11:08.286Z,102176.75
2023-01-25T08:13:36.208Z,102170.28
2023-01-25T08:16:04.306Z,102171.31
2023-01-25T08:18:32.147Z,102172.00
2023-01-25T08:21:00.506Z,102176.59
2023-01-25T08:23:28.389Z,102181.19
2023-01-25T08:25:56.476Z,102174.03
2023-01-25T08:28:24.425Z,102179.47
2023-01-25T08:30:57.510Z,102177.72
2023-01-25T08:33:26.137Z,102164.28
2023-01-25T08:35:54.226Z,102178.00
2023-01-25T08:38:22.152Z,102169.94
2023-01-25T08:40:49.983Z,102170.94
2023-01-25T08:43:17.811Z,102176.25
2023-01-25T08:45:45.650Z,102177.16
2023-01-25T08:48:15.988Z,102179.00
2023-01-25T08:50:44.039Z,102174.69
2023-01-25T08:53:11.981Z,102166.50
2023-01-25T08:55:40.630Z,102167.50
2023-01-25T08:58:11.136Z,102157.22
2023-01-25T09:00:38.984Z,102155.09
2023-01-25T09:03:06.844Z,102148.53
2023-01-25T09:05:34.685Z,102153.84
2023-01-25T09:08:02.591Z,102148.13
2023-01-25T09:10:30.430Z,102149.81
2023-01-25T09:12:58.299Z,102149.53
2023-01-25T09:15:26.174Z,102145.97
2023-01-25T09:17:54.039Z,102137.81
2023-01-25T09:20:21.896Z,102144.09
2023-01-25T09:22:49.929Z,102146.81
2023-01-25T09:25:17.829Z,102135.94
2023-01-25T09:27:45.769Z,102141.53
2023-01-25T09:30:18.763Z,102132.50
2023-01-25T09:32:47.499Z,102129.91
2023-01-25T09:35:15.371Z,102126.19
2023-01-25T09:37:43.314Z,102140.81
2023-01-25T09:40:11.379Z,102137.97
2023-01-25T09:42:39.692Z,102130.78
2023-01-25T09:45:07.735Z,102134.50
2023-01-25T09:47:35.761Z,102129.91
2023-01-25T09:50:03.716Z,102123.63
2023-01-25T09:52:31.632Z,102125.47
2023-01-25T09:54:59.575Z,102117.44
2023-01-25T09:57:27.420Z,102117.31
2023-01-25T09:59:55.352Z,102111.13
2023-01-25T10:02:24.724Z,102111.13
2023-01-25T10:04:52.668Z,102110.13
2023-01-25T10:07:20.900Z,102102.97
2023-01-25T10:09:48.844Z,102115.56
2023-01-25T10:12:16.903Z,102106.66
2023-01-25T10:14:44.773Z,102101.22
2023-01-25T10:17:13.688Z,102095.78
2023-01-25T10:19:41.742Z,102091.22
2023-01-25T10:22:09.601Z,102084.91
2023-01-25T10:24:37.441Z,102090.34
2023-01-25T10:27:05.349Z,102087.78
2023-01-25T10:29:33.253Z,102079.59
2023-01-25T10:32:01.204Z,102073.44
2023-01-25T10:34:29.248Z,102069.88
2023-01-25T10:36:57.145Z,102059.94
2023-01-25T10:39:25.111Z,102065.41
2023-01-25T10:41:53.004Z,102062.94
2023-01-25T10:44:24.696Z,102055.91
2023-01-25T10:46:52.839Z,102052.44
2023-01-25T10:49:20.808Z,102051.59
2023-01-25T10:51:48.709Z,102049.88
2023-01-25T10:54:16.595Z,102045.47
2023-01-25T10:56:44.545Z,102037.28
2023-01-25T10:59:12.471Z,102037.28
2023-01-25T11:01:40.491Z,102038.28
2023-01-25T11:04:08.478Z,102036.56
2023-01-25T11:06:36.386Z,102038.44
2023-01-25T11:09:04.447Z,102029.25
2023-01-25T11:11:32.358Z,102017.50
2023-01-25T11:14:00.235Z,102018.25
2023-01-25T11:16:28.118Z,102014.34
2023-01-25T11:18:55.985Z,102008.78
2023-01-25T11:21:25.305Z,102004.06
2023-01-25T11:23:53.372Z,102005.78
2023-01-25T11:26:21.537Z,102005.53
2023-01-25T11:28:49.926Z,101995.66
2023-01-25T11:31:20.791Z,101985.47
2023-01-25T11:33:48.858Z,101982.34
2023-01-25T11:36:16.858Z,101977.88
2023-01-25T11:38:44.867Z,101973.28
2023-01-25T11:41:12.815Z,101971.59
2023-01-25T11:43:40.878Z,101968.00
2023-01-25T11:46:08.776Z,101967.16
2023-01-25T11:48:36.718Z,101960.69
2023-01-25T11:51:04.626Z,101951.50
2023-01-25T11:53:32.596Z,101955.97
2023-01-25T11:56:00.621Z,101951.50
2023-01-25T11:58:28.509Z,101942.50
2023-01-25T12:00:56.357Z,101935.19
2023-01-25T12:03:24.256Z,101929.91
2023-01-25T12:05:52.300Z,101926.16
2023-01-25T12:08:20.144Z,101929.03
2023-01-25T12:10:48.133Z,101918.84
2023-01-25T12:13:16.026Z,101912.56
2023-01-25T12:15:44.254Z,101908.25
2023-01-25T12:18:13.256Z,101903.53
2023-01-25T12:20:41.198Z,101898.38
2023-01-25T12:23:09.088Z,101890.94
2023-01-25T12:25:37.068Z,101889.06
2023-01-25T12:28:05.199Z,101888.34
2023-01-25T12:30:33.138Z,101886.47
2023-01-25T12:33:14.012Z,101872.16
2023-01-25T12:35:42.401Z,101870.31
2023-01-25T12:38:10.519Z,101870.53
2023-01-25T12:40:38.453Z,101865.97
2023-01-25T12:43:06.293Z,101865.09
2023-01-25T12:45:34.237Z,101861.44
2023-01-25T12:48:02.179Z,101862.53
2023-01-25T12:50:30.120Z,101855.66
2023-01-25T12:52:58.042Z,101844.06
2023-01-25T12:55:25.960Z,101843.34
2023-01-25T12:57:54.113Z,101836.16
2023-01-25T13:00:21.980Z,101833.44
2023-01-25T13:02:51.064Z,101826.16
2023-01-25T13:05:19.008Z,101824.31
2023-01-25T13:07:47.117Z,101817.84
2023-01-25T13:10:15.121Z,101819.59
2023-01-25T13:12:43.442Z,101815.13
2023-01-25T13:15:11.496Z,101806.97
2023-01-25T13:17:40.753Z,101799.34
2023-01-25T13:20:09.416Z,101793.78
2023-01-25T13:22:37.443Z,101788.66
2023-01-25T13:25:05.752Z,101785.78
2023-01-25T13:27:35.844Z,101779.91
2023-01-25T13:30:04.441Z,101781.47
2023-01-25T13:32:32.358Z,101780.63
2023-01-25T13:35:00.259Z,101774.47
2023-01-25T13:37:29.168Z,101772.44
2023-01-25T13:39:57.143Z,101769.72
2023-01-25T13:42:25.499Z,101764.41
2023-01-25T13:44:53.512Z,101763.44
2023-01-25T13:47:21.467Z,101756.13
2023-01-25T13:49:49.314Z,101754.25
2023-01-25T13:52:17.209Z,101759.69
2023-01-25T13:54:45.211Z,101745.06
2023-01-25T13:57:14.263Z,101739.63
2023-01-25T13:59:42.279Z,101739.63
2023-01-25T14:02:10.222Z,101734.34
2023-01-25T14:04:38.156Z,101738.22
2023-01-25T14:07:10.119Z,101738.22
2023-01-25T14:09:38.404Z,101727.47
2023-01-25T14:12:07.042Z,101733.06
2023-01-25T14:14:35.050Z,101731.34
2023-01-25T14:17:03.184Z,101720.16
2023-01-25T14:19:31.474Z,101718.31
2023-01-25T14:21:59.446Z,101717.44
2023-01-25T14:24:27.417Z,101716.13
2023-01-25T14:26:55.726Z,101716.44
2023-01-25T14:29:32.510Z,101711.31
2023-01-25T14:32:00.979Z,101711.31
2023-01-25T14:34:28.928Z,101699.69
2023-01-25T14:36:57.187Z,101708.41
2023-01-25T14:39:25.297Z,101707.00
2023-01-25T14:42:00.948Z,101700.69
2023-01-25T14:44:29.521Z,101699.97
2023-01-25T14:46:57.408Z,101692.69
2023-01-25T14:49:28.984Z,101694.66
2023-01-25T14:51:57.006Z,101690.34
2023-01-25T14:54:24.836Z,101692.38
2023-01-25T14:56:53.166Z,101684.00
2023-01-25T14:59:21.081Z,101672.03
2023-01-25T15:01:49.003Z,101679.84
2023-01-25T15:04:16.907Z,101679.75
2023-01-25T15:06:45.046Z,101674.16
2023-01-25T15:09:13.051Z,101679.88
2023-01-25T15:11:49.084Z,101671.59
2023-01-25T15:14:17.060Z,101669.31
2023-01-25T15:16:45.008Z,101665.19
2023-01-25T15:19:13.054Z,101666.59
2023-01-25T15:21:41.050Z,101664.66
2023-01-25T15:24:12.175Z,101664.13
2023-01-25T15:26:40.114Z,101653.69
2023-01-25T15:29:08.241Z,101650.84
2023-01-25T15:31:36.154Z,101653.59
2023-01-25T15:34:04.161Z,101648.84
2023-01-25T15:39:23.649Z,101639.81
2023-01-25T15:41:51.486Z,101629.88
2023-01-25T15:44:20.463Z,101623.00
2023-01-25T15:46:48.412Z,101611.00
2023-01-25T15:49:16.312Z,101623.25
2023-01-25T15:51:44.267Z,101608.34
2023-01-25T15:54:12.355Z,101605.38
2023-01-25T15:56:40.315Z,101610.97
2023-01-25T15:59:08.260Z,101602.41
2023-01-25T16:01:36.246Z,101594.72
2023-01-25T16:04:04.096Z,101592.25
2023-01-25T16:06:31.999Z,101583.19
2023-01-25T16:08:59.990Z,101586.34
2023-01-25T16:11:27.877Z,101587.00
2023-01-25T16:13:57.008Z,101580.16
2023-01-25T16:16:24.956Z,101577.16
2023-01-25T16:18:52.973Z,101569.56
2023-01-25T16:21:20.869Z,101570.72
2023-01-25T16:23:48.802Z,101569.44
2023-01-25T16:26:16.679Z,101571.69
2023-01-25T16:28:44.672Z,101570.63
2023-01-25T16:31:22.559Z,101568.59
2023-01-25T16:33:57.960Z,101575.16
2023-01-25T16:36:25.918Z,101563.47
2023-01-25T16:38:53.969Z,101557.66
2023-01-25T16:41:21.859Z,101556.72
2023-01-25T16:43:49.766Z,101556.59
2023-01-25T16:46:17.708Z,101555.22
2023-01-25T16:48:45.620Z,101570.78
2023-01-25T16:51:13.629Z,101563.41
2023-01-25T16:53:41.538Z,101561.06
2023-01-25T16:56:09.408Z,101562.41
2023-01-25T16:58:37.262Z,101559.72
2023-01-25T17:01:05.177Z,101552.31
2023-01-25T17:03:33.090Z,101548.97
2023-01-25T17:06:01.167Z,101555.63
2023-01-25T17:08:29.039Z,101557.25
2023-01-25T17:10:57.567Z,101549.13
2023-01-25T17:13:25.507Z,101539.38
2023-01-25T17:15:53.461Z,101543.13
2023-01-25T17:18:21.376Z,101535.44
2023-01-25T17:20:49.298Z,101528.72
2023-01-25T17:23:17.245Z,101527.66
2023-01-25T17:25:45.173Z,101514.28
2023-01-25T17:28:13.090Z,101517.28
2023-01-25T17:30:41.040Z,101513.94
2023-01-25T17:33:09.691Z,101518.22
2023-01-25T17:35:37.628Z,101517.28
2023-01-25T17:38:05.509Z,101507.78
2023-01-25T17:40:33.507Z,101495.13
2023-01-25T17:43:01.335Z,101493.38
2023-01-25T17:45:29.265Z,101498.28
2023-01-25T17:47:57.168Z,101511.78
2023-01-25T17:50:25.076Z,101507.13
2023-01-25T17:52:52.898Z,101493.06
2023-01-25T17:55:20.710Z,101502.44
2023-01-25T17:57:48.641Z,101497.00
2023-01-25T18:00:16.519Z,101499.91
2023-01-25T18:02:45.137Z,101488.03
2023-01-25T18:05:13.081Z,101491.63
2023-01-25T18:07:41.059Z,101488.16
2023-01-25T18:10:09.423Z,101482.81
2023-01-25T18:12:37.704Z,101469.72
2023-01-25T18:15:05.546Z,101462.72
2023-01-25T18:17:35.701Z,101456.97
2023-01-25T18:20:05.166Z,101449.66
2023-01-25T18:22:33.136Z,101456.63
2023-01-25T18:25:01.123Z,101455.75
2023-01-25T18:27:28.991Z,101448.75
2023-01-25T18:29:57.042Z,101454.78
2023-01-25T18:32:24.961Z,101444.38
2023-01-25T18:34:52.889Z,101450.22
2023-01-25T18:37:21.898Z,101445.22
2023-01-25T18:39:49.816Z,101447.72
2023-01-25T18:42:17.728Z,101434.81
2023-01-25T18:44:48.404Z,101437.69
2023-01-25T18:47:18.750Z,101431.97
2023-01-25T18:49:46.742Z,101434.03
2023-01-25T18:52:16.096Z,101430.78
2023-01-25T18:54:44.003Z,101436.22
2023-01-25T18:57:12.147Z,101437.31
2023-01-25T18:59:40.076Z,101430.94
2023-01-25T19:02:07.969Z,101435.25
2023-01-25T19:04:35.943Z,101432.97
2023-01-25T19:07:04.175Z,101432.28
2023-01-25T19:09:32.099Z,101430.16
2023-01-25T19:12:00.012Z,101427.72
2023-01-25T19:14:27.860Z,101431.22
2023-01-25T19:16:55.795Z,101426.47
2023-01-25T19:19:23.729Z,101423.44
2023-01-25T19:24:43.788Z,101413.16
2023-01-25T19:27:11.700Z,101405.53
2023-01-25T19:29:39.656Z,101405.69
2023-01-25T19:32:07.684Z,101405.50
2023-01-25T19:34:35.595Z,101397.09
2023-01-25T19:37:03.476Z,101406.66
2023-01-25T19:39:31.317Z,101394.47
2023-01-25T19:41:59.228Z,101387.22
2023-01-25T19:44:27.122Z,101378.13
2023-01-25T19:46:55.035Z,101376.72
2023-01-25T19:49:23.810Z,101378.16
2023-01-25T19:51:53.858Z,101384.06
2023-01-25T19:54:21.927Z,101384.41
2023-01-25T19:56:49.908Z,101369.84
2023-01-25T19:59:17.887Z,101371.50
2023-01-25T20:01:46.431Z,101366.28
2023-01-25T20:04:14.601Z,101357.53
2023-01-25T20:06:42.550Z,101357.00
2023-01-25T20:09:10.461Z,101358.72
2023-01-25T20:11:38.602Z,101348.47
2023-01-25T20:14:06.703Z,101344.66
2023-01-25T20:16:34.608Z,101339.47
2023-01-25T20:19:02.468Z,101336.31
2023-01-25T20:21:31.081Z,101334.13
2023-01-25T20:24:00.565Z,101332.63
2023-01-25T20:26:28.525Z,101329.16
2023-01-25T20:28:56.581Z,101323.19
2023-01-25T20:31:24.486Z,101319.25
2023-01-25T20:33:53.153Z,101310.19
2023-01-25T20:36:21.184Z,101307.94
2023-01-25T20:38:49.093Z,101311.47
2023-01-25T20:41:17.029Z,101301.94
2023-01-25T20:43:44.881Z,101302.28
2023-01-25T20:46:12.918Z,101306.53
2023-01-25T20:48:40.850Z,101299.69
2023-01-25T20:51:09.849Z,101295.91
2023-01-25T20:53:37.814Z,101291.06
2023-01-25T20:56:05.652Z,101289.38
2023-01-25T20:58:33.539Z,101285.19
2023-01-25T21:01:01.499Z,101278.19
2023-01-25T21:03:30.203Z,101283.88
2023-01-25T21:05:58.158Z,101287.69
2023-01-25T21:08:26.081Z,101288.78
2023-01-25T21:10:53.881Z,101283.53
2023-01-25T21:13:21.772Z,101284.63
2023-01-25T21:15:49.776Z,101283.63
2023-01-25T21:18:17.739Z,101275.09
2023-01-25T21:20:45.574Z,101273.63
2023-01-25T21:23:13.447Z,101292.78
2023-01-25T21:25:41.341Z,101275.91
2023-01-25T21:28:09.223Z,101282.94
2023-01-25T21:30:37.159Z,101271.69
2023-01-25T21:33:05.018Z,101276.13
2023-01-25T21:35:32.844Z,101270.84
2023-01-25T21:38:00.966Z,101274.28
2023-01-25T21:40:30.576Z,101272.25
2023-01-25T21:42:58.727Z,101264.41
2023-01-25T21:45:44.368Z,101272.59
2023-01-25T21:48:12.240Z,101280.66
2023-01-25T21:50:57.501Z,101273.81
2023-01-25T21:53:25.347Z,101271.78
2023-01-25T21:55:53.186Z,101261.56
2023-01-25T21:58:21.060Z,101265.66
2023-01-25T22:00:48.927Z,101268.03
2023-01-25T22:03:16.792Z,101262.25
2023-01-25T22:05:44.629Z,101251.00
2023-01-25T22:08:12.491Z,101258.69
2023-01-25T22:10:40.329Z,101252.88
2023-01-25T22:13:08.342Z,101260.38
2023-01-25T22:15:36.189Z,101260.16
2023-01-25T22:18:04.218Z,101251.47
2023-01-25T22:20:32.042Z,101248.25
2023-01-25T22:22:59.896Z,101251.47
2023-01-25T22:25:27.898Z,101242.94
2023-01-25T22:27:59.018Z,101236.97
2023-01-25T22:30:26.893Z,101232.72
2023-01-25T22:32:54.843Z,101228.59
2023-01-25T22:35:22.704Z,101229.09
2023-01-25T22:37:50.603Z,101224.00
2023-01-25T22:40:18.449Z,101219.03
2023-01-25T22:42:46.316Z,101220.06
2023-01-25T22:45:14.260Z,101221.25
2023-01-25T22:47:42.159Z,101210.69
2023-01-25T22:50:10.334Z,101215.59
2023-01-25T22:52:38.481Z,101213.22
2023-01-25T22:55:06.365Z,101206.22
2023-01-25T22:57:34.160Z,101211.31
2023-01-25T23:00:02.107Z,101205.19
2023-01-25T23:02:30.154Z,101200.06
2023-01-25T23:04:58.023Z,101198.38
2023-01-25T23:07:25.968Z,101187.81
2023-01-25T23:09:54.188Z,101190.88
2023-01-25T23:12:22.130Z,101184.75
2023-01-25T23:14:52.984Z,101197.66
2023-01-25T23:17:38.553Z,101185.94
2023-01-25T23:20:06.513Z,101195.41
2023-01-25T23:22:34.386Z,101197.28
2023-01-25T23:25:02.289Z,101187.56
2023-01-25T23:27:30.296Z,101191.47
2023-01-25T23:29:58.216Z,101181.75
2023-01-25T23:32:26.026Z,101182.94
2023-01-25T23:34:54.367Z,101179.72
2023-01-25T23:37:22.986Z,101187.03
2023-01-25T23:39:51.751Z,101179.16
2023-01-25T23:42:19.633Z,101181.22
2023-01-25T23:44:47.513Z,101180.53
2023-01-25T23:47:15.427Z,101179.69
2023-01-25T23:49:43.264Z,101160.78
2023-01-25T23:52:11.166Z,101172.69
2023-01-25T23:54:39.030Z,101176.59
2023-01-25T23:57:06.917Z,101171.31
2023-01-25T23:59:34.828Z,101157.00
